sensor_id;sensor_type;location;lat;lon;timestamp;temperature;humidity
22781;DHT22;11557;50.884;4.322;2023-05-31T00:02:21;16.70;99.90
22781;DHT22;11557;50.884;4.322;2023-05-31T00:04:46;16.60;99.90
22781;DHT22;11557;50.884;4.322;2023-05-31T00:07:12;16.60;99.90
22781;DHT22;11557;50.884;4.322;2023-05-31T00:09:37;16.70;99.90
22781;DHT22;11557;50.884;4.322;2023-05-31T00:12:03;16.70;99.90
22781;DHT22;11557;50.884;4.322;2023-05-31T00:14:29;16.70;99.90
22781;DHT22;11557;50.884;4.322;2023-05-31T00:16:54;16.60;99.90
22781;DHT22;11557;50.884;4.322;2023-05-31T00:19:20;16.60;99.90
22781;DHT22;11557;50.884;4.322;2023-05-31T00:21:46;16.70;99.90
22781;DHT22;11557;50.884;4.322;2023-05-31T00:24:16;16.70;99.90
22781;DHT22;11557;50.884;4.322;2023-05-31T00:26:41;16.70;99.90
22781;DHT22;11557;50.884;4.322;2023-05-31T00:29:07;16.70;99.90
22781;DHT22;11557;50.884;4.322;2023-05-31T00:31:32;16.70;99.90
22781;DHT22;11557;50.884;4.322;2023-05-31T00:33:58;16.70;99.90
22781;DHT22;11557;50.884;4.322;2023-05-31T00:36:24;16.80;99.90
22781;DHT22;11557;50.884;4.322;2023-05-31T00:38:50;16.70;99.90
22781;DHT22;11557;50.884;4.322;2023-05-31T00:41:15;16.70;99.90
22781;DHT22;11557;50.884;4.322;2023-05-31T00:43:43;16.80;99.90
22781;DHT22;11557;50.884;4.322;2023-05-31T00:46:25;16.70;99.90
22781;DHT22;11557;50.884;4.322;2023-05-31T00:48:51;16.60;99.90
22781;DHT22;11557;50.884;4.322;2023-05-31T00:51:17;16.60;99.90
22781;DHT22;11557;50.884;4.322;2023-05-31T00:53:43;16.50;99.90
22781;DHT22;11557;50.884;4.322;2023-05-31T00:56:09;16.40;99.90
22781;DHT22;11557;50.884;4.322;2023-05-31T00:58:35;16.50;99.90
22781;DHT22;11557;50.884;4.322;2023-05-31T01:01:02;16.40;99.90
22781;DHT22;11557;50.884;4.322;2023-05-31T01:03:28;16.50;99.90
22781;DHT22;11557;50.884;4.322;2023-05-31T01:05:54;16.60;99.90
22781;DHT22;11557;50.884;4.322;2023-05-31T01:08:21;16.40;99.90
22781;DHT22;11557;50.884;4.322;2023-05-31T01:10:47;16.40;99.90
22781;DHT22;11557;50.884;4.322;2023-05-31T01:13:23;16.20;99.90
22781;DHT22;11557;50.884;4.322;2023-05-31T01:16:05;16.10;99.90
22781;DHT22;11557;50.884;4.322;2023-05-31T01:18:38;16.30;99.90
22781;DHT22;11557;50.884;4.322;2023-05-31T01:21:11;16.30;99.90
22781;DHT22;11557;50.884;4.322;2023-05-31T01:26:43;16.20;99.90
22781;DHT22;11557;50.884;4.322;2023-05-31T01:29:18;16.00;99.90
22781;DHT22;11557;50.884;4.322;2023-05-31T01:31:45;16.10;99.90
22781;DHT22;11557;50.884;4.322;2023-05-31T01:34:12;16.10;99.90
22781;DHT22;11557;50.884;4.322;2023-05-31T01:36:39;16.20;99.90
22781;DHT22;11557;50.884;4.322;2023-05-31T01:39:05;16.30;99.90
22781;DHT22;11557;50.884;4.322;2023-05-31T01:41:41;16.30;99.90
22781;DHT22;11557;50.884;4.322;2023-05-31T01:44:08;16.00;99.90
22781;DHT22;11557;50.884;4.322;2023-05-31T01:46:34;15.90;99.90
22781;DHT22;11557;50.884;4.322;2023-05-31T01:49:01;15.80;99.90
22781;DHT22;11557;50.884;4.322;2023-05-31T01:51:28;15.90;99.90
22781;DHT22;11557;50.884;4.322;2023-05-31T01:53:56;15.90;99.90
22781;DHT22;11557;50.884;4.322;2023-05-31T01:56:23;16.00;99.90
22781;DHT22;11557;50.884;4.322;2023-05-31T01:58:50;16.00;99.90
22781;DHT22;11557;50.884;4.322;2023-05-31T02:01:18;16.00;99.90
22781;DHT22;11557;50.884;4.322;2023-05-31T02:03:44;16.00;99.90
22781;DHT22;11557;50.884;4.322;2023-05-31T02:06:10;16.00;99.90
22781;DHT22;11557;50.884;4.322;2023-05-31T02:08:39;16.00;99.90
22781;DHT22;11557;50.884;4.322;2023-05-31T02:11:06;16.10;99.90
22781;DHT22;11557;50.884;4.322;2023-05-31T02:13:32;16.30;99.90
22781;DHT22;11557;50.884;4.322;2023-05-31T02:15:58;16.20;99.90
22781;DHT22;11557;50.884;4.322;2023-05-31T02:18:24;15.90;99.90
22781;DHT22;11557;50.884;4.322;2023-05-31T02:20:53;16.00;99.90
22781;DHT22;11557;50.884;4.322;2023-05-31T02:23:19;16.10;99.90
22781;DHT22;11557;50.884;4.322;2023-05-31T02:25:46;16.00;99.90
22781;DHT22;11557;50.884;4.322;2023-05-31T02:28:12;16.00;99.90
22781;DHT22;11557;50.884;4.322;2023-05-31T02:30:38;15.80;99.90
22781;DHT22;11557;50.884;4.322;2023-05-31T02:33:04;15.80;99.90
22781;DHT22;11557;50.884;4.322;2023-05-31T02:35:30;15.70;99.90
22781;DHT22;11557;50.884;4.322;2023-05-31T02:37:56;15.70;99.90
22781;DHT22;11557;50.884;4.322;2023-05-31T02:40:21;15.50;99.90
22781;DHT22;11557;50.884;4.322;2023-05-31T02:42:47;15.50;99.90
22781;DHT22;11557;50.884;4.322;2023-05-31T02:45:13;15.60;99.90
22781;DHT22;11557;50.884;4.322;2023-05-31T02:47:39;15.60;99.90
22781;DHT22;11557;50.884;4.322;2023-05-31T02:50:06;15.60;99.90
22781;DHT22;11557;50.884;4.322;2023-05-31T02:52:33;15.70;99.90
22781;DHT22;11557;50.884;4.322;2023-05-31T02:54:59;15.80;99.90
22781;DHT22;11557;50.884;4.322;2023-05-31T02:57:25;15.70;99.90
22781;DHT22;11557;50.884;4.322;2023-05-31T02:59:55;15.80;99.90
22781;DHT22;11557;50.884;4.322;2023-05-31T03:02:21;15.40;99.90
22781;DHT22;11557;50.884;4.322;2023-05-31T03:04:47;14.30;99.90
22781;DHT22;11557;50.884;4.322;2023-05-31T03:07:13;15.40;99.90
22781;DHT22;11557;50.884;4.322;2023-05-31T03:09:39;15.40;99.90
22781;DHT22;11557;50.884;4.322;2023-05-31T03:12:05;15.50;99.90
22781;DHT22;11557;50.884;4.322;2023-05-31T03:14:32;15.50;99.90
22781;DHT22;11557;50.884;4.322;2023-05-31T03:16:57;15.50;99.90
22781;DHT22;11557;50.884;4.322;2023-05-31T03:19:23;15.40;99.90
22781;DHT22;11557;50.884;4.322;2023-05-31T03:21:49;15.30;99.90
22781;DHT22;11557;50.884;4.322;2023-05-31T03:24:15;15.50;99.90
22781;DHT22;11557;50.884;4.322;2023-05-31T03:26:40;15.60;99.90
22781;DHT22;11557;50.884;4.322;2023-05-31T03:29:06;15.60;99.90
22781;DHT22;11557;50.884;4.322;2023-05-31T03:31:31;15.60;99.90
22781;DHT22;11557;50.884;4.322;2023-05-31T03:33:58;15.60;99.90
22781;DHT22;11557;50.884;4.322;2023-05-31T03:36:23;15.60;99.90
22781;DHT22;11557;50.884;4.322;2023-05-31T03:38:49;15.30;99.90
22781;DHT22;11557;50.884;4.322;2023-05-31T03:41:14;15.60;99.90
22781;DHT22;11557;50.884;4.322;2023-05-31T03:43:40;15.50;99.90
22781;DHT22;11557;50.884;4.322;2023-05-31T03:46:07;15.50;99.90
22781;DHT22;11557;50.884;4.322;2023-05-31T03:48:32;15.60;99.90
22781;DHT22;11557;50.884;4.322;2023-05-31T03:50:58;15.50;99.90
22781;DHT22;11557;50.884;4.322;2023-05-31T03:53:23;15.40;99.90
22781;DHT22;11557;50.884;4.322;2023-05-31T03:55:50;15.50;99.90
22781;DHT22;11557;50.884;4.322;2023-05-31T03:58:16;15.30;99.90
22781;DHT22;11557;50.884;4.322;2023-05-31T04:00:41;15.30;99.90
22781;DHT22;11557;50.884;4.322;2023-05-31T04:03:07;15.40;99.90
22781;DHT22;11557;50.884;4.322;2023-05-31T04:05:33;15.30;99.90
22781;DHT22;11557;50.884;4.322;2023-05-31T04:07:59;15.20;99.90
22781;DHT22;11557;50.884;4.322;2023-05-31T04:10:27;15.30;99.90
22781;DHT22;11557;50.884;4.322;2023-05-31T04:12:53;15.30;99.90
22781;DHT22;11557;50.884;4.322;2023-05-31T04:15:18;15.40;99.90
22781;DHT22;11557;50.884;4.322;2023-05-31T04:17:44;15.30;99.90
22781;DHT22;11557;50.884;4.322;2023-05-31T04:20:12;15.40;99.90
22781;DHT22;11557;50.884;4.322;2023-05-31T04:22:37;15.30;99.90
22781;DHT22;11557;50.884;4.322;2023-05-31T04:25:03;15.30;99.90
22781;DHT22;11557;50.884;4.322;2023-05-31T04:27:30;15.40;99.90
22781;DHT22;11557;50.884;4.322;2023-05-31T04:29:57;15.30;99.90
22781;DHT22;11557;50.884;4.322;2023-05-31T04:32:24;15.30;99.90
22781;DHT22;11557;50.884;4.322;2023-05-31T04:34:50;15.30;99.90
22781;DHT22;11557;50.884;4.322;2023-05-31T04:37:26;15.30;99.90
22781;DHT22;11557;50.884;4.322;2023-05-31T04:39:55;15.30;99.90
22781;DHT22;11557;50.884;4.322;2023-05-31T04:42:22;15.30;99.90
22781;DHT22;11557;50.884;4.322;2023-05-31T04:44:50;15.20;99.90
22781;DHT22;11557;50.884;4.322;2023-05-31T04:47:16;15.10;99.90
22781;DHT22;11557;50.884;4.322;2023-05-31T04:49:42;15.30;99.90
22781;DHT22;11557;50.884;4.322;2023-05-31T04:52:08;15.30;99.90
22781;DHT22;11557;50.884;4.322;2023-05-31T04:54:35;15.40;99.90
22781;DHT22;11557;50.884;4.322;2023-05-31T04:57:01;15.50;99.90
22781;DHT22;11557;50.884;4.322;2023-05-31T04:59:26;15.50;99.90
22781;DHT22;11557;50.884;4.322;2023-05-31T05:01:52;15.40;99.90
22781;DHT22;11557;50.884;4.322;2023-05-31T05:04:18;15.40;99.90
22781;DHT22;11557;50.884;4.322;2023-05-31T05:06:43;15.40;99.90
22781;DHT22;11557;50.884;4.322;2023-05-31T05:09:10;15.40;99.90
22781;DHT22;11557;50.884;4.322;2023-05-31T05:11:36;15.40;99.90
22781;DHT22;11557;50.884;4.322;2023-05-31T05:14:02;15.40;99.90
22781;DHT22;11557;50.884;4.322;2023-05-31T05:16:28;15.50;99.90
22781;DHT22;11557;50.884;4.322;2023-05-31T05:18:53;15.50;99.90
22781;DHT22;11557;50.884;4.322;2023-05-31T05:21:19;15.40;99.90
22781;DHT22;11557;50.884;4.322;2023-05-31T05:23:44;15.50;99.90
22781;DHT22;11557;50.884;4.322;2023-05-31T05:26:10;15.60;99.90
22781;DHT22;11557;50.884;4.322;2023-05-31T05:28:36;15.60;99.90
22781;DHT22;11557;50.884;4.322;2023-05-31T05:31:02;15.60;99.90
22781;DHT22;11557;50.884;4.322;2023-05-31T05:33:29;15.80;99.90
22781;DHT22;11557;50.884;4.322;2023-05-31T05:35:56;15.70;99.90
22781;DHT22;11557;50.884;4.322;2023-05-31T05:38:21;15.80;99.90
22781;DHT22;11557;50.884;4.322;2023-05-31T05:40:47;15.80;99.90
22781;DHT22;11557;50.884;4.322;2023-05-31T05:43:13;15.80;99.90
22781;DHT22;11557;50.884;4.322;2023-05-31T05:45:38;15.80;99.90
22781;DHT22;11557;50.884;4.322;2023-05-31T05:48:04;15.70;99.90
22781;DHT22;11557;50.884;4.322;2023-05-31T05:50:30;15.70;99.90
22781;DHT22;11557;50.884;4.322;2023-05-31T05:52:55;16.00;99.90
22781;DHT22;11557;50.884;4.322;2023-05-31T05:55:22;15.90;99.90
22781;DHT22;11557;50.884;4.322;2023-05-31T05:57:47;16.00;99.90
22781;DHT22;11557;50.884;4.322;2023-05-31T06:00:13;15.70;99.90
22781;DHT22;11557;50.884;4.322;2023-05-31T06:02:41;15.80;99.90
22781;DHT22;11557;50.884;4.322;2023-05-31T06:05:07;16.00;99.90
22781;DHT22;11557;50.884;4.322;2023-05-31T06:07:33;16.10;99.90
22781;DHT22;11557;50.884;4.322;2023-05-31T06:09:58;16.20;99.90
22781;DHT22;11557;50.884;4.322;2023-05-31T06:12:25;16.30;99.90
22781;DHT22;11557;50.884;4.322;2023-05-31T06:14:51;16.20;99.90
22781;DHT22;11557;50.884;4.322;2023-05-31T06:17:17;16.20;99.90
22781;DHT22;11557;50.884;4.322;2023-05-31T06:19:42;16.10;99.90
22781;DHT22;11557;50.884;4.322;2023-05-31T06:22:08;16.10;99.90
22781;DHT22;11557;50.884;4.322;2023-05-31T06:24:34;16.20;99.90
22781;DHT22;11557;50.884;4.322;2023-05-31T06:27:00;16.30;99.90
22781;DHT22;11557;50.884;4.322;2023-05-31T06:29:28;16.30;99.90
22781;DHT22;11557;50.884;4.322;2023-05-31T06:31:53;16.40;99.90
22781;DHT22;11557;50.884;4.322;2023-05-31T06:34:20;16.50;99.90
22781;DHT22;11557;50.884;4.322;2023-05-31T06:36:45;16.50;99.90
22781;DHT22;11557;50.884;4.322;2023-05-31T06:39:11;16.70;99.90
22781;DHT22;11557;50.884;4.322;2023-05-31T06:41:37;16.80;99.90
22781;DHT22;11557;50.884;4.322;2023-05-31T06:44:03;18.20;99.90
22781;DHT22;11557;50.884;4.322;2023-05-31T06:46:28;21.10;99.90
22781;DHT22;11557;50.884;4.322;2023-05-31T06:48:54;24.50;99.90
22781;DHT22;11557;50.884;4.322;2023-05-31T06:51:20;27.30;99.90
22781;DHT22;11557;50.884;4.322;2023-05-31T06:53:49;29.70;99.90
22781;DHT22;11557;50.884;4.322;2023-05-31T06:56:14;31.80;99.90
22781;DHT22;11557;50.884;4.322;2023-05-31T06:58:41;33.60;99.90
22781;DHT22;11557;50.884;4.322;2023-05-31T07:01:07;35.10;99.90
22781;DHT22;11557;50.884;4.322;2023-05-31T07:03:33;35.90;99.50
22781;DHT22;11557;50.884;4.322;2023-05-31T07:05:58;36.80;96.60
22781;DHT22;11557;50.884;4.322;2023-05-31T07:08:24;36.60;94.10
22781;DHT22;11557;50.884;4.322;2023-05-31T07:10:50;37.30;93.80
22781;DHT22;11557;50.884;4.322;2023-05-31T07:13:15;37.80;92.60
22781;DHT22;11557;50.884;4.322;2023-05-31T07:15:41;37.80;91.80
22781;DHT22;11557;50.884;4.322;2023-05-31T07:18:07;38.40;91.00
22781;DHT22;11557;50.884;4.322;2023-05-31T07:20:32;39.00;90.10
22781;DHT22;11557;50.884;4.322;2023-05-31T07:22:58;38.80;87.70
22781;DHT22;11557;50.884;4.322;2023-05-31T07:25:24;39.00;86.30
22781;DHT22;11557;50.884;4.322;2023-05-31T07:27:50;39.30;85.20
22781;DHT22;11557;50.884;4.322;2023-05-31T07:30:16;39.90;85.40
22781;DHT22;11557;50.884;4.322;2023-05-31T07:32:42;40.00;84.30
22781;DHT22;11557;50.884;4.322;2023-05-31T07:35:08;40.40;82.60
22781;DHT22;11557;50.884;4.322;2023-05-31T07:37:34;40.90;80.60
22781;DHT22;11557;50.884;4.322;2023-05-31T07:39:59;40.10;79.60
22781;DHT22;11557;50.884;4.322;2023-05-31T07:42:25;38.90;82.30
22781;DHT22;11557;50.884;4.322;2023-05-31T07:44:51;39.50;80.90
22781;DHT22;11557;50.884;4.322;2023-05-31T07:47:16;38.70;81.20
22781;DHT22;11557;50.884;4.322;2023-05-31T07:49:42;39.20;80.60
22781;DHT22;11557;50.884;4.322;2023-05-31T07:52:08;38.40;81.00
22781;DHT22;11557;50.884;4.322;2023-05-31T07:54:34;38.00;81.50
22781;DHT22;11557;50.884;4.322;2023-05-31T07:56:59;38.20;81.20
22781;DHT22;11557;50.884;4.322;2023-05-31T07:59:26;38.40;82.70
22781;DHT22;11557;50.884;4.322;2023-05-31T08:01:51;38.80;81.20
22781;DHT22;11557;50.884;4.322;2023-05-31T08:04:17;39.10;80.70
22781;DHT22;11557;50.884;4.322;2023-05-31T08:06:43;39.40;79.40
22781;DHT22;11557;50.884;4.322;2023-05-31T08:09:09;38.90;79.20
22781;DHT22;11557;50.884;4.322;2023-05-31T08:11:35;38.60;80.10
22781;DHT22;11557;50.884;4.322;2023-05-31T08:14:01;39.10;80.30
22781;DHT22;11557;50.884;4.322;2023-05-31T08:16:28;39.40;80.40
22781;DHT22;11557;50.884;4.322;2023-05-31T08:18:53;39.70;79.40
22781;DHT22;11557;50.884;4.322;2023-05-31T08:21:19;39.30;78.70
22781;DHT22;11557;50.884;4.322;2023-05-31T08:23:44;38.90;79.30
22781;DHT22;11557;50.884;4.322;2023-05-31T08:26:10;39.10;79.60
22781;DHT22;11557;50.884;4.322;2023-05-31T08:28:36;39.50;79.50
22781;DHT22;11557;50.884;4.322;2023-05-31T08:31:01;39.60;78.90
22781;DHT22;11557;50.884;4.322;2023-05-31T08:33:28;39.00;78.70
22781;DHT22;11557;50.884;4.322;2023-05-31T08:35:55;39.40;79.70
22781;DHT22;11557;50.884;4.322;2023-05-31T08:38:28;39.20;77.80
22781;DHT22;11557;50.884;4.322;2023-05-31T08:40:58;39.20;79.10
22781;DHT22;11557;50.884;4.322;2023-05-31T08:43:26;39.30;78.20
22781;DHT22;11557;50.884;4.322;2023-05-31T08:45:52;39.10;78.40
22781;DHT22;11557;50.884;4.322;2023-05-31T08:48:26;38.10;78.40
22781;DHT22;11557;50.884;4.322;2023-05-31T08:50:54;37.80;79.50
22781;DHT22;11557;50.884;4.322;2023-05-31T08:53:24;37.80;80.40
22781;DHT22;11557;50.884;4.322;2023-05-31T08:55:52;37.80;79.10
22781;DHT22;11557;50.884;4.322;2023-05-31T08:58:18;37.80;80.20
22781;DHT22;11557;50.884;4.322;2023-05-31T09:00:44;37.60;80.60
22781;DHT22;11557;50.884;4.322;2023-05-31T09:03:12;37.10;80.90
22781;DHT22;11557;50.884;4.322;2023-05-31T09:05:37;37.10;80.00
22781;DHT22;11557;50.884;4.322;2023-05-31T09:08:03;36.10;80.40
22781;DHT22;11557;50.884;4.322;2023-05-31T09:10:29;35.90;81.60
22781;DHT22;11557;50.884;4.322;2023-05-31T09:12:56;36.30;82.30
22781;DHT22;11557;50.884;4.322;2023-05-31T09:15:24;36.60;81.70
22781;DHT22;11557;50.884;4.322;2023-05-31T09:17:51;36.20;83.50
22781;DHT22;11557;50.884;4.322;2023-05-31T09:20:19;35.60;83.00
22781;DHT22;11557;50.884;4.322;2023-05-31T09:22:49;35.70;84.70
22781;DHT22;11557;50.884;4.322;2023-05-31T09:25:14;35.00;81.90
22781;DHT22;11557;50.884;4.322;2023-05-31T09:27:40;35.00;83.60
22781;DHT22;11557;50.884;4.322;2023-05-31T09:30:13;35.00;84.50
22781;DHT22;11557;50.884;4.322;2023-05-31T09:32:39;35.30;86.70
22781;DHT22;11557;50.884;4.322;2023-05-31T09:35:15;35.30;84.40
22781;DHT22;11557;50.884;4.322;2023-05-31T09:37:46;35.20;84.30
22781;DHT22;11557;50.884;4.322;2023-05-31T09:40:25;35.30;83.80
22781;DHT22;11557;50.884;4.322;2023-05-31T09:42:54;34.80;84.50
22781;DHT22;11557;50.884;4.322;2023-05-31T09:45:21;34.80;85.10
22781;DHT22;11557;50.884;4.322;2023-05-31T09:47:47;34.80;86.00
22781;DHT22;11557;50.884;4.322;2023-05-31T09:50:17;34.40;86.40
22781;DHT22;11557;50.884;4.322;2023-05-31T09:52:55;34.20;84.60
22781;DHT22;11557;50.884;4.322;2023-05-31T09:55:21;34.20;85.90
22781;DHT22;11557;50.884;4.322;2023-05-31T09:57:46;34.00;86.80
22781;DHT22;11557;50.884;4.322;2023-05-31T10:00:16;33.60;88.00
22781;DHT22;11557;50.884;4.322;2023-05-31T10:02:51;32.90;87.20
22781;DHT22;11557;50.884;4.322;2023-05-31T10:05:17;32.80;88.10
22781;DHT22;11557;50.884;4.322;2023-05-31T10:07:47;32.70;86.90
22781;DHT22;11557;50.884;4.322;2023-05-31T10:10:13;32.30;88.30
22781;DHT22;11557;50.884;4.322;2023-05-31T10:15:16;31.90;88.70
22781;DHT22;11557;50.884;4.322;2023-05-31T10:17:45;31.60;88.10
22781;DHT22;11557;50.884;4.322;2023-05-31T10:20:13;31.40;90.10
22781;DHT22;11557;50.884;4.322;2023-05-31T10:22:43;31.30;89.30
22781;DHT22;11557;50.884;4.322;2023-05-31T10:27:53;31.10;91.40
22781;DHT22;11557;50.884;4.322;2023-05-31T10:30:21;30.80;90.60
22781;DHT22;11557;50.884;4.322;2023-05-31T10:33:12;30.90;90.60
22781;DHT22;11557;50.884;4.322;2023-05-31T10:35:39;30.90;90.60
22781;DHT22;11557;50.884;4.322;2023-05-31T10:38:06;30.60;91.20
22781;DHT22;11557;50.884;4.322;2023-05-31T10:43:57;30.60;90.20
22781;DHT22;11557;50.884;4.322;2023-05-31T10:46:28;30.60;92.10
22781;DHT22;11557;50.884;4.322;2023-05-31T10:48:57;30.40;91.50
22781;DHT22;11557;50.884;4.322;2023-05-31T10:51:43;30.30;92.20
22781;DHT22;11557;50.884;4.322;2023-05-31T10:54:25;30.30;91.20
22781;DHT22;11557;50.884;4.322;2023-05-31T10:56:55;30.50;91.90
22781;DHT22;11557;50.884;4.322;2023-05-31T10:59:23;30.40;90.10
22781;DHT22;11557;50.884;4.322;2023-05-31T11:01:49;30.30;91.30
22781;DHT22;11557;50.884;4.322;2023-05-31T11:04:23;30.40;90.30
22781;DHT22;11557;50.884;4.322;2023-05-31T11:07:14;30.30;90.90
22781;DHT22;11557;50.884;4.322;2023-05-31T11:09:53;30.40;90.40
22781;DHT22;11557;50.884;4.322;2023-05-31T11:12:35;30.40;90.60
22781;DHT22;11557;50.884;4.322;2023-05-31T11:15:02;30.40;89.20
22781;DHT22;11557;50.884;4.322;2023-05-31T11:17:38;30.30;89.90
22781;DHT22;11557;50.884;4.322;2023-05-31T11:20:06;30.20;89.70
22781;DHT22;11557;50.884;4.322;2023-05-31T11:22:32;30.00;87.20
22781;DHT22;11557;50.884;4.322;2023-05-31T11:24:58;29.90;88.50
22781;DHT22;11557;50.884;4.322;2023-05-31T11:27:35;30.00;88.30
22781;DHT22;11557;50.884;4.322;2023-05-31T11:30:02;29.90;88.90
22781;DHT22;11557;50.884;4.322;2023-05-31T11:35:05;29.80;88.30
22781;DHT22;11557;50.884;4.322;2023-05-31T11:37:36;29.70;87.00
22781;DHT22;11557;50.884;4.322;2023-05-31T11:40:07;29.80;90.30
22781;DHT22;11557;50.884;4.322;2023-05-31T11:42:36;29.80;88.60
22781;DHT22;11557;50.884;4.322;2023-05-31T11:45:13;29.90;88.00
22781;DHT22;11557;50.884;4.322;2023-05-31T11:47:48;29.60;87.70
22781;DHT22;11557;50.884;4.322;2023-05-31T11:50:15;29.60;90.20
22781;DHT22;11557;50.884;4.322;2023-05-31T11:52:44;29.50;88.60
22781;DHT22;11557;50.884;4.322;2023-05-31T11:55:11;29.60;90.20
22781;DHT22;11557;50.884;4.322;2023-05-31T11:57:48;29.60;89.60
22781;DHT22;11557;50.884;4.322;2023-05-31T12:00:19;29.80;88.50
22781;DHT22;11557;50.884;4.322;2023-05-31T12:02:55;29.80;90.00
22781;DHT22;11557;50.884;4.322;2023-05-31T12:05:30;29.80;90.70
22781;DHT22;11557;50.884;4.322;2023-05-31T12:07:56;29.80;90.30
22781;DHT22;11557;50.884;4.322;2023-05-31T12:10:27;29.90;90.00
22781;DHT22;11557;50.884;4.322;2023-05-31T12:12:53;29.70;90.00
22781;DHT22;11557;50.884;4.322;2023-05-31T12:15:19;29.50;88.80
22781;DHT22;11557;50.884;4.322;2023-05-31T12:17:46;29.50;87.90
22781;DHT22;11557;50.884;4.322;2023-05-31T12:20:11;29.60;88.80
22781;DHT22;11557;50.884;4.322;2023-05-31T12:22:38;29.50;89.00
22781;DHT22;11557;50.884;4.322;2023-05-31T12:25:04;29.50;88.10
22781;DHT22;11557;50.884;4.322;2023-05-31T12:27:30;29.50;89.40
22781;DHT22;11557;50.884;4.322;2023-05-31T12:29:57;29.60;89.70
22781;DHT22;11557;50.884;4.322;2023-05-31T12:32:23;29.50;89.90
22781;DHT22;11557;50.884;4.322;2023-05-31T12:35:08;29.60;90.10
22781;DHT22;11557;50.884;4.322;2023-05-31T12:37:35;29.50;89.30
22781;DHT22;11557;50.884;4.322;2023-05-31T12:40:08;29.40;90.10
22781;DHT22;11557;50.884;4.322;2023-05-31T12:42:35;29.30;89.20
22781;DHT22;11557;50.884;4.322;2023-05-31T12:45:05;29.40;89.50
22781;DHT22;11557;50.884;4.322;2023-05-31T12:47:32;29.30;88.10
22781;DHT22;11557;50.884;4.322;2023-05-31T12:50:19;29.30;88.60
22781;DHT22;11557;50.884;4.322;2023-05-31T12:52:55;29.30;89.20
22781;DHT22;11557;50.884;4.322;2023-05-31T12:55:23;29.30;90.50
22781;DHT22;11557;50.884;4.322;2023-05-31T12:57:49;29.40;90.00
22781;DHT22;11557;50.884;4.322;2023-05-31T13:00:15;29.20;89.90
22781;DHT22;11557;50.884;4.322;2023-05-31T13:02:41;29.30;90.40
22781;DHT22;11557;50.884;4.322;2023-05-31T13:05:07;29.40;90.20
22781;DHT22;11557;50.884;4.322;2023-05-31T13:07:34;29.60;90.00
22781;DHT22;11557;50.884;4.322;2023-05-31T13:10:01;29.90;90.00
22781;DHT22;11557;50.884;4.322;2023-05-31T13:12:27;30.00;90.00
22781;DHT22;11557;50.884;4.322;2023-05-31T13:14:52;30.00;89.50
22781;DHT22;11557;50.884;4.322;2023-05-31T13:17:18;29.90;90.00
22781;DHT22;11557;50.884;4.322;2023-05-31T13:19:44;29.80;88.40
22781;DHT22;11557;50.884;4.322;2023-05-31T13:22:11;29.80;88.90
22781;DHT22;11557;50.884;4.322;2023-05-31T13:24:37;29.90;88.80
22781;DHT22;11557;50.884;4.322;2023-05-31T13:27:04;29.90;89.30
22781;DHT22;11557;50.884;4.322;2023-05-31T13:29:30;29.80;89.00
22781;DHT22;11557;50.884;4.322;2023-05-31T13:31:56;29.80;89.60
22781;DHT22;11557;50.884;4.322;2023-05-31T13:34:21;29.80;89.50
22781;DHT22;11557;50.884;4.322;2023-05-31T13:36:47;30.00;90.20
22781;DHT22;11557;50.884;4.322;2023-05-31T13:39:13;30.10;89.40
22781;DHT22;11557;50.884;4.322;2023-05-31T13:41:41;29.80;88.60
22781;DHT22;11557;50.884;4.322;2023-05-31T13:44:08;29.90;88.90
22781;DHT22;11557;50.884;4.322;2023-05-31T13:46:34;29.80;87.50
22781;DHT22;11557;50.884;4.322;2023-05-31T13:49:00;29.90;88.80
22781;DHT22;11557;50.884;4.322;2023-05-31T13:51:25;29.70;90.20
22781;DHT22;11557;50.884;4.322;2023-05-31T13:53:51;29.80;89.50
22781;DHT22;11557;50.884;4.322;2023-05-31T13:56:16;29.90;89.30
22781;DHT22;11557;50.884;4.322;2023-05-31T13:58:42;29.80;89.00
22781;DHT22;11557;50.884;4.322;2023-05-31T14:01:08;29.60;87.70
22781;DHT22;11557;50.884;4.322;2023-05-31T14:03:34;29.60;90.20
22781;DHT22;11557;50.884;4.322;2023-05-31T14:06:00;29.70;91.00
22781;DHT22;11557;50.884;4.322;2023-05-31T14:08:26;29.80;89.20
22781;DHT22;11557;50.884;4.322;2023-05-31T14:10:52;29.60;90.60
22781;DHT22;11557;50.884;4.322;2023-05-31T14:13:18;29.70;89.30
22781;DHT22;11557;50.884;4.322;2023-05-31T14:15:44;29.80;90.40
22781;DHT22;11557;50.884;4.322;2023-05-31T14:18:10;29.80;89.50
22781;DHT22;11557;50.884;4.322;2023-05-31T14:20:36;29.80;87.70
22781;DHT22;11557;50.884;4.322;2023-05-31T14:23:03;29.80;89.50
22781;DHT22;11557;50.884;4.322;2023-05-31T14:25:29;29.80;90.40
22781;DHT22;11557;50.884;4.322;2023-05-31T14:27:54;29.90;89.50
22781;DHT22;11557;50.884;4.322;2023-05-31T14:30:20;29.80;89.10
22781;DHT22;11557;50.884;4.322;2023-05-31T14:32:46;30.20;91.30
22781;DHT22;11557;50.884;4.322;2023-05-31T14:35:12;30.10;90.60
22781;DHT22;11557;50.884;4.322;2023-05-31T14:37:38;29.90;89.30
22781;DHT22;11557;50.884;4.322;2023-05-31T14:40:05;29.80;88.50
22781;DHT22;11557;50.884;4.322;2023-05-31T14:42:31;29.90;89.30
22781;DHT22;11557;50.884;4.322;2023-05-31T14:44:57;29.80;88.90
22781;DHT22;11557;50.884;4.322;2023-05-31T14:47:23;29.80;89.10
22781;DHT22;11557;50.884;4.322;2023-05-31T14:49:49;29.80;90.10
22781;DHT22;11557;50.884;4.322;2023-05-31T14:52:14;29.90;89.40
22781;DHT22;11557;50.884;4.322;2023-05-31T14:54:40;29.60;90.20
22781;DHT22;11557;50.884;4.322;2023-05-31T14:57:06;29.50;90.60
22781;DHT22;11557;50.884;4.322;2023-05-31T14:59:32;29.80;89.10
22781;DHT22;11557;50.884;4.322;2023-05-31T15:01:57;29.60;89.50
22781;DHT22;11557;50.884;4.322;2023-05-31T15:04:25;29.60;88.50
22781;DHT22;11557;50.884;4.322;2023-05-31T15:06:51;29.80;88.90
22781;DHT22;11557;50.884;4.322;2023-05-31T15:09:17;29.80;89.10
22781;DHT22;11557;50.884;4.322;2023-05-31T15:11:44;29.70;87.60
22781;DHT22;11557;50.884;4.322;2023-05-31T15:14:09;29.60;89.70
22781;DHT22;11557;50.884;4.322;2023-05-31T15:16:36;29.60;88.10
22781;DHT22;11557;50.884;4.322;2023-05-31T15:19:02;29.70;88.60
22781;DHT22;11557;50.884;4.322;2023-05-31T15:21:28;29.70;88.80
22781;DHT22;11557;50.884;4.322;2023-05-31T15:23:54;29.70;89.90
22781;DHT22;11557;50.884;4.322;2023-05-31T15:26:20;29.60;90.00
22781;DHT22;11557;50.884;4.322;2023-05-31T15:28:48;29.60;90.00
22781;DHT22;11557;50.884;4.322;2023-05-31T15:31:14;29.60;90.60
22781;DHT22;11557;50.884;4.322;2023-05-31T15:33:39;30.10;91.10
22781;DHT22;11557;50.884;4.322;2023-05-31T15:36:06;29.60;90.90
22781;DHT22;11557;50.884;4.322;2023-05-31T15:38:32;29.80;90.80
22781;DHT22;11557;50.884;4.322;2023-05-31T15:40:58;29.90;92.90
22781;DHT22;11557;50.884;4.322;2023-05-31T15:43:24;29.70;90.40
22781;DHT22;11557;50.884;4.322;2023-05-31T15:45:51;29.40;91.60